sensor_id;sensor_type;location;lat;lon;timestamp;temperature;humidity
35325;DHT22;35135;47.510;19.036;2023-02-21T00:01:35;21.50;54.30
35325;DHT22;35135;47.510;19.036;2023-02-21T00:04:19;21.50;54.20
35325;DHT22;35135;47.510;19.036;2023-02-21T00:07:04;21.50;54.00
35325;DHT22;35135;47.510;19.036;2023-02-21T00:09:48;21.50;53.90
35325;DHT22;35135;47.510;19.036;2023-02-21T00:12:32;21.50;53.90
35325;DHT22;35135;47.510;19.036;2023-02-21T00:15:16;21.50;53.90
35325;DHT22;35135;47.510;19.036;2023-02-21T00:18:00;21.50;54.00
35325;DHT22;35135;47.510;19.036;2023-02-21T00:20:44;21.50;54.00
35325;DHT22;35135;47.510;19.036;2023-02-21T00:23:33;21.50;53.90
35325;DHT22;35135;47.510;19.036;2023-02-21T00:26:18;21.50;54.10
35325;DHT22;35135;47.510;19.036;2023-02-21T00:29:03;21.50;54.10
35325;DHT22;35135;47.510;19.036;2023-02-21T00:31:48;21.50;54.10
35325;DHT22;35135;47.510;19.036;2023-02-21T00:34:32;21.50;54.00
35325;DHT22;35135;47.510;19.036;2023-02-21T00:37:16;21.50;53.90
35325;DHT22;35135;47.510;19.036;2023-02-21T00:40:00;21.50;54.00
35325;DHT22;35135;47.510;19.036;2023-02-21T00:42:44;21.50;53.90
35325;DHT22;35135;47.510;19.036;2023-02-21T00:45:28;21.50;54.00
35325;DHT22;35135;47.510;19.036;2023-02-21T00:48:12;21.50;54.00
35325;DHT22;35135;47.510;19.036;2023-02-21T00:50:56;21.50;54.00
35325;DHT22;35135;47.510;19.036;2023-02-21T00:53:41;21.50;53.90
35325;DHT22;35135;47.510;19.036;2023-02-21T00:56:25;21.40;53.90
35325;DHT22;35135;47.510;19.036;2023-02-21T00:59:09;21.50;53.80
35325;DHT22;35135;47.510;19.036;2023-02-21T01:01:53;21.40;53.90
35325;DHT22;35135;47.510;19.036;2023-02-21T01:04:37;21.40;53.70
35325;DHT22;35135;47.510;19.036;2023-02-21T01:07:21;21.40;53.70
35325;DHT22;35135;47.510;19.036;2023-02-21T01:10:05;21.40;53.80
35325;DHT22;35135;47.510;19.036;2023-02-21T01:12:49;21.40;53.80
35325;DHT22;35135;47.510;19.036;2023-02-21T01:15:33;21.40;53.80
35325;DHT22;35135;47.510;19.036;2023-02-21T01:18:17;21.40;53.70
35325;DHT22;35135;47.510;19.036;2023-02-21T01:21:01;21.40;53.70
35325;DHT22;35135;47.510;19.036;2023-02-21T01:23:46;21.40;53.90
35325;DHT22;35135;47.510;19.036;2023-02-21T01:26:31;21.40;53.70
35325;DHT22;35135;47.510;19.036;2023-02-21T01:29:15;21.40;53.70
35325;DHT22;35135;47.510;19.036;2023-02-21T01:31:59;21.40;53.70
35325;DHT22;35135;47.510;19.036;2023-02-21T01:34:43;21.40;53.80
35325;DHT22;35135;47.510;19.036;2023-02-21T01:37:27;21.40;53.70
35325;DHT22;35135;47.510;19.036;2023-02-21T01:40:15;21.40;54.30
35325;DHT22;35135;47.510;19.036;2023-02-21T01:42:59;21.30;53.60
35325;DHT22;35135;47.510;19.036;2023-02-21T01:45:50;21.30;53.60
35325;DHT22;35135;47.510;19.036;2023-02-21T01:48:36;21.40;53.70
35325;DHT22;35135;47.510;19.036;2023-02-21T01:51:24;21.40;53.60
35325;DHT22;35135;47.510;19.036;2023-02-21T01:54:10;21.40;53.70
35325;DHT22;35135;47.510;19.036;2023-02-21T01:56:55;21.30;54.20
35325;DHT22;35135;47.510;19.036;2023-02-21T01:59:42;21.30;53.60
35325;DHT22;35135;47.510;19.036;2023-02-21T02:02:31;21.30;53.50
35325;DHT22;35135;47.510;19.036;2023-02-21T02:05:17;21.30;53.60
35325;DHT22;35135;47.510;19.036;2023-02-21T02:08:02;21.30;53.50
35325;DHT22;35135;47.510;19.036;2023-02-21T02:10:50;21.30;53.40
35325;DHT22;35135;47.510;19.036;2023-02-21T02:14:08;21.30;53.40
35325;DHT22;35135;47.510;19.036;2023-02-21T02:16:45;21.30;53.40
35325;DHT22;35135;47.510;19.036;2023-02-21T02:25:04;21.30;53.60
35325;DHT22;35135;47.510;19.036;2023-02-21T02:36:50;21.30;53.50
35325;DHT22;35135;47.510;19.036;2023-02-21T02:39:45;21.30;53.50
35325;DHT22;35135;47.510;19.036;2023-02-21T02:44:59;21.30;53.40
35325;DHT22;35135;47.510;19.036;2023-02-21T02:47:30;21.30;53.40
35325;DHT22;35135;47.510;19.036;2023-02-21T02:49:58;21.20;53.30
35325;DHT22;35135;47.510;19.036;2023-02-21T02:52:24;21.30;53.40
35325;DHT22;35135;47.510;19.036;2023-02-21T02:55:02;21.30;53.40
35325;DHT22;35135;47.510;19.036;2023-02-21T02:57:33;21.30;53.40
35325;DHT22;35135;47.510;19.036;2023-02-21T03:00:06;21.30;53.40
35325;DHT22;35135;47.510;19.036;2023-02-21T03:08:44;21.30;53.40
35325;DHT22;35135;47.510;19.036;2023-02-21T03:11:17;21.30;53.30
35325;DHT22;35135;47.510;19.036;2023-02-21T03:16:28;21.20;53.30
35325;DHT22;35135;47.510;19.036;2023-02-21T03:21:31;21.20;53.30
35325;DHT22;35135;47.510;19.036;2023-02-21T03:24:01;21.20;53.20
35325;DHT22;35135;47.510;19.036;2023-02-21T03:26:31;21.20;53.20
35325;DHT22;35135;47.510;19.036;2023-02-21T03:28:58;21.30;53.30
35325;DHT22;35135;47.510;19.036;2023-02-21T03:31:28;21.20;53.20
35325;DHT22;35135;47.510;19.036;2023-02-21T03:33:56;21.20;53.20
35325;DHT22;35135;47.510;19.036;2023-02-21T03:36:22;21.20;53.20
35325;DHT22;35135;47.510;19.036;2023-02-21T03:38:48;21.20;53.20
35325;DHT22;35135;47.510;19.036;2023-02-21T03:41:14;21.20;53.20
35325;DHT22;35135;47.510;19.036;2023-02-21T03:43:40;21.20;53.20
35325;DHT22;35135;47.510;19.036;2023-02-21T03:46:05;21.20;53.10
35325;DHT22;35135;47.510;19.036;2023-02-21T03:48:31;21.20;53.10
35325;DHT22;35135;47.510;19.036;2023-02-21T03:50:57;21.20;53.10
35325;DHT22;35135;47.510;19.036;2023-02-21T03:53:23;21.20;53.10
35325;DHT22;35135;47.510;19.036;2023-02-21T03:55:48;21.20;53.10
35325;DHT22;35135;47.510;19.036;2023-02-21T03:58:14;21.20;53.10
35325;DHT22;35135;47.510;19.036;2023-02-21T04:00:40;21.20;53.00
35325;DHT22;35135;47.510;19.036;2023-02-21T04:03:05;21.20;53.00
35325;DHT22;35135;47.510;19.036;2023-02-21T04:05:31;21.20;53.10
35325;DHT22;35135;47.510;19.036;2023-02-21T04:07:57;21.20;53.00
35325;DHT22;35135;47.510;19.036;2023-02-21T04:10:22;21.20;53.10
35325;DHT22;35135;47.510;19.036;2023-02-21T04:12:48;21.20;53.10
35325;DHT22;35135;47.510;19.036;2023-02-21T04:15:13;21.20;53.00
35325;DHT22;35135;47.510;19.036;2023-02-21T04:17:39;21.20;53.00
35325;DHT22;35135;47.510;19.036;2023-02-21T04:20:05;21.20;53.00
35325;DHT22;35135;47.510;19.036;2023-02-21T04:22:31;21.20;53.00
35325;DHT22;35135;47.510;19.036;2023-02-21T04:24:57;21.20;53.00
35325;DHT22;35135;47.510;19.036;2023-02-21T04:27:22;21.20;53.00
35325;DHT22;35135;47.510;19.036;2023-02-21T04:29:48;21.20;52.90
35325;DHT22;35135;47.510;19.036;2023-02-21T04:32:14;21.20;52.90
35325;DHT22;35135;47.510;19.036;2023-02-21T04:34:40;21.20;52.90
35325;DHT22;35135;47.510;19.036;2023-02-21T04:37:05;21.20;52.90
35325;DHT22;35135;47.510;19.036;2023-02-21T04:39:31;21.20;52.90
35325;DHT22;35135;47.510;19.036;2023-02-21T04:41:57;21.20;52.90
35325;DHT22;35135;47.510;19.036;2023-02-21T04:44:22;21.20;52.90
35325;DHT22;35135;47.510;19.036;2023-02-21T04:46:48;21.20;52.90
35325;DHT22;35135;47.510;19.036;2023-02-21T04:49:13;21.20;52.90
35325;DHT22;35135;47.510;19.036;2023-02-21T04:51:39;21.20;52.90
35325;DHT22;35135;47.510;19.036;2023-02-21T04:54:06;21.20;53.20
35325;DHT22;35135;47.510;19.036;2023-02-21T04:56:32;21.10;53.00
35325;DHT22;35135;47.510;19.036;2023-02-21T04:58:58;21.20;53.00
35325;DHT22;35135;47.510;19.036;2023-02-21T05:01:29;21.20;52.80
35325;DHT22;35135;47.510;19.036;2023-02-21T05:03:57;21.20;52.80
35325;DHT22;35135;47.510;19.036;2023-02-21T05:06:25;21.20;52.70
35325;DHT22;35135;47.510;19.036;2023-02-21T05:08:51;21.20;52.70
35325;DHT22;35135;47.510;19.036;2023-02-21T05:11:19;21.20;52.90
35325;DHT22;35135;47.510;19.036;2023-02-21T05:13:45;21.20;53.00
35325;DHT22;35135;47.510;19.036;2023-02-21T05:16:11;21.30;53.00
35325;DHT22;35135;47.510;19.036;2023-02-21T05:18:37;21.30;53.10
35325;DHT22;35135;47.510;19.036;2023-02-21T05:21:05;21.40;53.00
35325;DHT22;35135;47.510;19.036;2023-02-21T05:23:32;21.50;52.80
35325;DHT22;35135;47.510;19.036;2023-02-21T05:26:06;21.60;53.30
35325;DHT22;35135;47.510;19.036;2023-02-21T05:28:32;21.60;52.50
35325;DHT22;35135;47.510;19.036;2023-02-21T05:30:58;21.70;52.40
35325;DHT22;35135;47.510;19.036;2023-02-21T05:33:25;21.80;52.10
35325;DHT22;35135;47.510;19.036;2023-02-21T05:35:50;21.90;52.00
35325;DHT22;35135;47.510;19.036;2023-02-21T05:38:18;22.00;52.40
35325;DHT22;35135;47.510;19.036;2023-02-21T05:40:44;22.00;51.60
35325;DHT22;35135;47.510;19.036;2023-02-21T05:43:10;22.10;51.50
35325;DHT22;35135;47.510;19.036;2023-02-21T05:45:35;22.10;51.40
35325;DHT22;35135;47.510;19.036;2023-02-21T05:48:01;22.20;51.30
35325;DHT22;35135;47.510;19.036;2023-02-21T05:50:29;22.20;51.30
35325;DHT22;35135;47.510;19.036;2023-02-21T05:52:57;22.20;51.10
35325;DHT22;35135;47.510;19.036;2023-02-21T05:55:23;22.20;51.10
35325;DHT22;35135;47.510;19.036;2023-02-21T05:57:49;22.20;51.10
35325;DHT22;35135;47.510;19.036;2023-02-21T06:00:32;22.20;51.00
35325;DHT22;35135;47.510;19.036;2023-02-21T06:02:58;22.20;51.00
35325;DHT22;35135;47.510;19.036;2023-02-21T06:05:24;22.20;51.00
35325;DHT22;35135;47.510;19.036;2023-02-21T06:07:50;22.20;51.00
35325;DHT22;35135;47.510;19.036;2023-02-21T06:10:17;22.20;50.90
35325;DHT22;35135;47.510;19.036;2023-02-21T06:12:43;22.20;50.90
35325;DHT22;35135;47.510;19.036;2023-02-21T06:15:09;22.20;51.10
35325;DHT22;35135;47.510;19.036;2023-02-21T06:17:37;22.10;51.10
35325;DHT22;35135;47.510;19.036;2023-02-21T06:20:04;22.20;51.30
35325;DHT22;35135;47.510;19.036;2023-02-21T06:22:30;22.20;51.30
35325;DHT22;35135;47.510;19.036;2023-02-21T06:24:56;22.10;51.10
35325;DHT22;35135;47.510;19.036;2023-02-21T06:27:22;22.10;51.20
35325;DHT22;35135;47.510;19.036;2023-02-21T06:29:48;22.10;51.30
35325;DHT22;35135;47.510;19.036;2023-02-21T06:32:14;22.20;51.40
35325;DHT22;35135;47.510;19.036;2023-02-21T06:34:39;22.20;51.60
35325;DHT22;35135;47.510;19.036;2023-02-21T06:37:05;22.10;51.60
35325;DHT22;35135;47.510;19.036;2023-02-21T06:39:31;22.10;51.60
35325;DHT22;35135;47.510;19.036;2023-02-21T06:41:57;22.10;51.60
35325;DHT22;35135;47.510;19.036;2023-02-21T06:44:24;22.10;51.60
35325;DHT22;35135;47.510;19.036;2023-02-21T06:46:49;22.10;51.60
35325;DHT22;35135;47.510;19.036;2023-02-21T06:49:15;22.10;51.60
35325;DHT22;35135;47.510;19.036;2023-02-21T06:51:41;22.10;51.60
35325;DHT22;35135;47.510;19.036;2023-02-21T06:54:08;22.10;51.30
35325;DHT22;35135;47.510;19.036;2023-02-21T06:56:34;22.10;51.50
35325;DHT22;35135;47.510;19.036;2023-02-21T06:59:00;22.10;51.50
35325;DHT22;35135;47.510;19.036;2023-02-21T07:01:27;22.10;51.60
35325;DHT22;35135;47.510;19.036;2023-02-21T07:03:55;22.10;51.50
35325;DHT22;35135;47.510;19.036;2023-02-21T07:06:20;22.10;51.50
35325;DHT22;35135;47.510;19.036;2023-02-21T07:08:46;22.10;51.50
35325;DHT22;35135;47.510;19.036;2023-02-21T07:11:13;22.00;51.50
35325;DHT22;35135;47.510;19.036;2023-02-21T07:13:38;22.00;51.60
35325;DHT22;35135;47.510;19.036;2023-02-21T07:16:05;22.00;51.50
35325;DHT22;35135;47.510;19.036;2023-02-21T07:18:31;22.00;51.60
35325;DHT22;35135;47.510;19.036;2023-02-21T07:20:57;22.00;51.70
35325;DHT22;35135;47.510;19.036;2023-02-21T07:23:22;22.00;51.60
35325;DHT22;35135;47.510;19.036;2023-02-21T07:25:48;22.00;51.60
35325;DHT22;35135;47.510;19.036;2023-02-21T07:28:14;22.10;51.50
35325;DHT22;35135;47.510;19.036;2023-02-21T07:30:40;22.10;51.20
35325;DHT22;35135;47.510;19.036;2023-02-21T07:33:06;22.10;51.00
35325;DHT22;35135;47.510;19.036;2023-02-21T07:35:31;22.20;50.90
35325;DHT22;35135;47.510;19.036;2023-02-21T07:37:57;22.20;50.70
35325;DHT22;35135;47.510;19.036;2023-02-21T07:40:22;22.20;50.60
35325;DHT22;35135;47.510;19.036;2023-02-21T07:42:48;22.30;50.40
35325;DHT22;35135;47.510;19.036;2023-02-21T07:45:15;22.30;50.30
35325;DHT22;35135;47.510;19.036;2023-02-21T07:47:41;22.30;50.20
35325;DHT22;35135;47.510;19.036;2023-02-21T07:50:11;22.30;50.20
35325;DHT22;35135;47.510;19.036;2023-02-21T07:52:37;22.30;50.10
35325;DHT22;35135;47.510;19.036;2023-02-21T07:55:03;22.30;50.10
35325;DHT22;35135;47.510;19.036;2023-02-21T07:57:29;22.30;49.90
35325;DHT22;35135;47.510;19.036;2023-02-21T07:59:54;22.30;49.90
35325;DHT22;35135;47.510;19.036;2023-02-21T08:02:20;22.30;50.10
35325;DHT22;35135;47.510;19.036;2023-02-21T08:04:49;22.30;50.10
35325;DHT22;35135;47.510;19.036;2023-02-21T08:07:16;22.30;49.90
35325;DHT22;35135;47.510;19.036;2023-02-21T08:09:41;22.30;50.00
35325;DHT22;35135;47.510;19.036;2023-02-21T08:12:07;22.30;49.90
35325;DHT22;35135;47.510;19.036;2023-02-21T08:14:33;22.30;49.90
35325;DHT22;35135;47.510;19.036;2023-02-21T08:16:58;22.30;49.80
35325;DHT22;35135;47.510;19.036;2023-02-21T08:19:24;22.30;49.90
35325;DHT22;35135;47.510;19.036;2023-02-21T08:21:50;22.30;49.90
35325;DHT22;35135;47.510;19.036;2023-02-21T08:24:17;22.30;49.80
35325;DHT22;35135;47.510;19.036;2023-02-21T08:26:43;22.30;50.10
35325;DHT22;35135;47.510;19.036;2023-02-21T08:29:11;22.30;49.90
35325;DHT22;35135;47.510;19.036;2023-02-21T08:31:38;22.30;49.90
35325;DHT22;35135;47.510;19.036;2023-02-21T08:34:05;22.30;49.90
35325;DHT22;35135;47.510;19.036;2023-02-21T08:36:36;22.30;49.70
35325;DHT22;35135;47.510;19.036;2023-02-21T08:39:03;22.30;49.80
35325;DHT22;35135;47.510;19.036;2023-02-21T08:41:40;22.30;49.80
35325;DHT22;35135;47.510;19.036;2023-02-21T08:44:07;22.30;49.90
35325;DHT22;35135;47.510;19.036;2023-02-21T08:46:34;22.20;49.80
35325;DHT22;35135;47.510;19.036;2023-02-21T08:49:00;22.20;49.80
35325;DHT22;35135;47.510;19.036;2023-02-21T08:51:27;22.20;49.90
35325;DHT22;35135;47.510;19.036;2023-02-21T08:53:53;22.20;49.90
35325;DHT22;35135;47.510;19.036;2023-02-21T08:56:23;22.20;49.90
35325;DHT22;35135;47.510;19.036;2023-02-21T08:58:49;22.20;50.10
35325;DHT22;35135;47.510;19.036;2023-02-21T09:01:15;22.20;49.80
35325;DHT22;35135;47.510;19.036;2023-02-21T09:03:41;22.20;49.80
35325;DHT22;35135;47.510;19.036;2023-02-21T09:06:07;22.20;49.70
35325;DHT22;35135;47.510;19.036;2023-02-21T09:08:33;22.20;49.70
35325;DHT22;35135;47.510;19.036;2023-02-21T09:11:00;22.10;49.70
35325;DHT22;35135;47.510;19.036;2023-02-21T09:13:27;22.10;49.80
35325;DHT22;35135;47.510;19.036;2023-02-21T09:15:57;22.10;49.80
35325;DHT22;35135;47.510;19.036;2023-02-21T09:18:22;22.10;49.80
35325;DHT22;35135;47.510;19.036;2023-02-21T09:20:48;22.10;49.90
35325;DHT22;35135;47.510;19.036;2023-02-21T09:23:20;22.10;49.80
35325;DHT22;35135;47.510;19.036;2023-02-21T09:25:50;22.10;49.80
35325;DHT22;35135;47.510;19.036;2023-02-21T09:28:16;22.10;50.00
35325;DHT22;35135;47.510;19.036;2023-02-21T09:30:41;22.10;50.00
35325;DHT22;35135;47.510;19.036;2023-02-21T09:33:08;22.10;49.90
35325;DHT22;35135;47.510;19.036;2023-02-21T09:35:33;22.00;49.90
35325;DHT22;35135;47.510;19.036;2023-02-21T09:37:59;22.00;49.70
35325;DHT22;35135;47.510;19.036;2023-02-21T09:40:35;22.00;49.70
35325;DHT22;35135;47.510;19.036;2023-02-21T09:43:03;22.00;49.80
35325;DHT22;35135;47.510;19.036;2023-02-21T09:45:32;22.00;49.80
35325;DHT22;35135;47.510;19.036;2023-02-21T09:48:04;22.00;49.70
35325;DHT22;35135;47.510;19.036;2023-02-21T09:50:36;22.00;49.50
35325;DHT22;35135;47.510;19.036;2023-02-21T09:53:04;22.00;49.70
35325;DHT22;35135;47.510;19.036;2023-02-21T09:55:38;22.00;49.80
35325;DHT22;35135;47.510;19.036;2023-02-21T09:58:12;22.00;49.90
35325;DHT22;35135;47.510;19.036;2023-02-21T10:00:38;22.00;50.00
35325;DHT22;35135;47.510;19.036;2023-02-21T10:09:25;22.00;50.10
35325;DHT22;35135;47.510;19.036;2023-02-21T10:12:00;22.00;50.10
35325;DHT22;35135;47.510;19.036;2023-02-21T10:17:30;22.00;50.10
35325;DHT22;35135;47.510;19.036;2023-02-21T10:20:04;22.00;50.20
35325;DHT22;35135;47.510;19.036;2023-02-21T10:22:34;22.00;50.10
35325;DHT22;35135;47.510;19.036;2023-02-21T10:25:20;22.00;50.30
35325;DHT22;35135;47.510;19.036;2023-02-21T10:27:46;22.00;50.10
35325;DHT22;35135;47.510;19.036;2023-02-21T10:30:32;22.00;50.20
35325;DHT22;35135;47.510;19.036;2023-02-21T10:33:00;22.00;50.20
35325;DHT22;35135;47.510;19.036;2023-02-21T10:35:31;22.00;50.10
35325;DHT22;35135;47.510;19.036;2023-02-21T10:37:58;21.90;50.00
35325;DHT22;35135;47.510;19.036;2023-02-21T10:43:10;22.00;50.20
35325;DHT22;35135;47.510;19.036;2023-02-21T10:48:36;22.00;50.10
35325;DHT22;35135;47.510;19.036;2023-02-21T10:51:12;22.00;50.10
35325;DHT22;35135;47.510;19.036;2023-02-21T10:53:40;22.00;50.00
35325;DHT22;35135;47.510;19.036;2023-02-21T11:03:56;22.00;50.20
35325;DHT22;35135;47.510;19.036;2023-02-21T11:08:58;22.00;50.00
35325;DHT22;35135;47.510;19.036;2023-02-21T11:11:36;22.00;50.10
35325;DHT22;35135;47.510;19.036;2023-02-21T11:16:43;22.00;50.10
35325;DHT22;35135;47.510;19.036;2023-02-21T11:19:12;22.00;50.10
35325;DHT22;35135;47.510;19.036;2023-02-21T11:21:39;22.00;50.10
35325;DHT22;35135;47.510;19.036;2023-02-21T11:24:06;22.00;50.00
35325;DHT22;35135;47.510;19.036;2023-02-21T11:26:47;22.00;49.90
35325;DHT22;35135;47.510;19.036;2023-02-21T11:29:19;22.00;50.00
35325;DHT22;35135;47.510;19.036;2023-02-21T11:31:46;22.00;49.90
35325;DHT22;35135;47.510;19.036;2023-02-21T11:34:13;22.00;49.90
35325;DHT22;35135;47.510;19.036;2023-02-21T11:36:42;22.00;49.90
35325;DHT22;35135;47.510;19.036;2023-02-21T11:39:18;22.00;49.90
35325;DHT22;35135;47.510;19.036;2023-02-21T11:41:56;22.00;49.90
35325;DHT22;35135;47.510;19.036;2023-02-21T11:44:31;22.00;50.00
35325;DHT22;35135;47.510;19.036;2023-02-21T11:50:03;22.00;50.00
35325;DHT22;35135;47.510;19.036;2023-02-21T11:52:34;22.00;49.90
35325;DHT22;35135;47.510;19.036;2023-02-21T11:55:03;22.00;49.90
35325;DHT22;35135;47.510;19.036;2023-02-21T11:57:50;22.00;49.80
35325;DHT22;35135;47.510;19.036;2023-02-21T12:05:57;22.00;49.90
35325;DHT22;35135;47.510;19.036;2023-02-21T12:23:44;22.00;49.70
35325;DHT22;35135;47.510;19.036;2023-02-21T12:32:43;21.90;49.60
35325;DHT22;35135;47.510;19.036;2023-02-21T12:41:05;21.90;49.40
35325;DHT22;35135;47.510;19.036;2023-02-21T12:46:35;21.90;49.50
35325;DHT22;35135;47.510;19.036;2023-02-21T12:52:11;21.90;49.50
35325;DHT22;35135;47.510;19.036;2023-02-21T12:54:47;22.00;49.60
35325;DHT22;35135;47.510;19.036;2023-02-21T12:57:31;21.90;49.60
35325;DHT22;35135;47.510;19.036;2023-02-21T13:00:48;22.00;49.70
35325;DHT22;35135;47.510;19.036;2023-02-21T13:06:22;22.00;49.70
35325;DHT22;35135;47.510;19.036;2023-02-21T13:14:03;22.00;49.70
35325;DHT22;35135;47.510;19.036;2023-02-21T13:16:33;22.00;49.70
35325;DHT22;35135;47.510;19.036;2023-02-21T13:19:05;22.00;49.70
35325;DHT22;35135;47.510;19.036;2023-02-21T13:21:49;22.00;49.70
35325;DHT22;35135;47.510;19.036;2023-02-21T13:24:51;22.00;49.70
35325;DHT22;35135;47.510;19.036;2023-02-21T13:27:39;22.00;49.70
35325;DHT22;35135;47.510;19.036;2023-02-21T13:32:56;22.00;49.70
35325;DHT22;35135;47.510;19.036;2023-02-21T13:35:37;22.10;49.70
35325;DHT22;35135;47.510;19.036;2023-02-21T13:38:09;22.10;49.70
35325;DHT22;35135;47.510;19.036;2023-02-21T13:40:37;22.10;49.60
35325;DHT22;35135;47.510;19.036;2023-02-21T13:45:48;22.10;49.60
35325;DHT22;35135;47.510;19.036;2023-02-21T13:48:27;22.10;49.60
35325;DHT22;35135;47.510;19.036;2023-02-21T13:50:57;22.10;49.50
35325;DHT22;35135;47.510;19.036;2023-02-21T13:53:25;22.10;49.50
35325;DHT22;35135;47.510;19.036;2023-02-21T13:58:44;22.10;49.40
35325;DHT22;35135;47.510;19.036;2023-02-21T14:03:54;22.10;49.40
35325;DHT22;35135;47.510;19.036;2023-02-21T14:06:37;22.10;49.50
35325;DHT22;35135;47.510;19.036;2023-02-21T14:09:13;22.10;49.50
35325;DHT22;35135;47.510;19.036;2023-02-21T14:11:48;22.10;49.60
35325;DHT22;35135;47.510;19.036;2023-02-21T14:14:30;22.10;49.60
35325;DHT22;35135;47.510;19.036;2023-02-21T14:17:02;22.10;49.70
35325;DHT22;35135;47.510;19.036;2023-02-21T14:19:48;22.10;49.80
35325;DHT22;35135;47.510;19.036;2023-02-21T14:22:22;22.10;50.00
35325;DHT22;35135;47.510;19.036;2023-02-21T14:24:51;22.10;50.10
35325;DHT22;35135;47.510;19.036;2023-02-21T14:32:27;22.10;50.40
35325;DHT22;35135;47.510;19.036;2023-02-21T14:34:56;22.10;50.50
35325;DHT22;35135;47.510;19.036;2023-02-21T14:39:59;22.10;50.50
35325;DHT22;35135;47.510;19.036;2023-02-21T14:47:59;22.10;50.40
35325;DHT22;35135;47.510;19.036;2023-02-21T14:59:17;22.00;50.30
35325;DHT22;35135;47.510;19.036;2023-02-21T15:04:40;22.00;50.50
35325;DHT22;35135;47.510;19.036;2023-02-21T15:09:36;22.00;50.50
35325;DHT22;35135;47.510;19.036;2023-02-21T15:12:16;22.00;50.50
35325;DHT22;35135;47.510;19.036;2023-02-21T15:14:51;22.00;50.50
35325;DHT22;35135;47.510;19.036;2023-02-21T15:17:21;22.00;50.50
35325;DHT22;35135;47.510;19.036;2023-02-21T15:20:01;22.00;50.60
35325;DHT22;35135;47.510;19.036;2023-02-21T15:22:30;22.00;50.50
35325;DHT22;35135;47.510;19.036;2023-02-21T15:25:16;22.00;50.70
35325;DHT22;35135;47.510;19.036;2023-02-21T15:30:20;22.00;50.70
35325;DHT22;35135;47.510;19.036;2023-02-21T15:33:10;22.00;50.60
35325;DHT22;35135;47.510;19.036;2023-02-21T15:36:17;22.00;50.60
35325;DHT22;35135;47.510;19.036;2023-02-21T15:41:44;22.00;50.80
35325;DHT22;35135;47.510;19.036;2023-02-21T15:44:21;22.00;50.90
35325;DHT22;35135;47.510;19.036;2023-02-21T15:47:02;22.00;51.10
35325;DHT22;35135;47.510;19.036;2023-02-21T15:49:46;22.00;51.00
35325;DHT22;35135;47.510;19.036;2023-02-21T15:52:48;22.00;51.40
35325;DHT22;35135;47.510;19.036;2023-02-21T16:00:46;22.00;51.50
35325;DHT22;35135;47.510;19.036;2023-02-21T16:06:37;22.00;51.60
35325;DHT22;35135;47.510;19.036;2023-02-21T16:09:19;22.10;51.50
35325;DHT22;35135;47.510;19.036;2023-02-21T16:14:28;22.10;51.70
35325;DHT22;35135;47.510;19.036;2023-02-21T16:17:31;22.10;51.80
35325;DHT22;35135;47.510;19.036;2023-02-21T16:19:58;22.10;51.70
35325;DHT22;35135;47.510;19.036;2023-02-21T16:22:39;22.10;51.80
35325;DHT22;35135;47.510;19.036;2023-02-21T16:25:22;22.10;52.00
35325;DHT22;35135;47.510;19.036;2023-02-21T16:27:56;22.10;52.10
35325;DHT22;35135;47.510;19.036;2023-02-21T16:32:50;22.10;53.00
35325;DHT22;35135;47.510;19.036;2023-02-21T16:35:22;22.10;52.80
35325;DHT22;35135;47.510;19.036;2023-02-21T16:37:51;22.10;54.10
35325;DHT22;35135;47.510;19.036;2023-02-21T16:40:26;22.10;53.80
35325;DHT22;35135;47.510;19.036;2023-02-21T16:42:55;22.10;53.60
35325;DHT22;35135;47.510;19.036;2023-02-21T16:45:21;22.10;53.90
35325;DHT22;35135;47.510;19.036;2023-02-21T16:47:49;22.10;54.30
35325;DHT22;35135;47.510;19.036;2023-02-21T16:50:21;22.10;54.20
35325;DHT22;35135;47.510;19.036;2023-02-21T16:52:47;22.10;53.90
35325;DHT22;35135;47.510;19.036;2023-02-21T16:55:17;22.10;54.80
35325;DHT22;35135;47.510;19.036;2023-02-21T16:57:48;22.20;54.90
35325;DHT22;35135;47.510;19.036;2023-02-21T17:00:16;22.10;54.50
35325;DHT22;35135;47.510;19.036;2023-02-21T17:02:45;22.20;55.10
35325;DHT22;35135;47.510;19.036;2023-02-21T17:05:10;22.20;55.40
35325;DHT22;35135;47.510;19.036;2023-02-21T17:07:37;22.20;55.30
35325;DHT22;35135;47.510;19.036;2023-02-21T17:10:04;22.20;55.40
35325;DHT22;35135;47.510;19.036;2023-02-21T17:12:29;22.20;56.50
35325;DHT22;35135;47.510;19.036;2023-02-21T17:14:55;22.20;56.90
35325;DHT22;35135;47.510;19.036;2023-02-21T17:17:21;22.20;56.80
35325;DHT22;35135;47.510;19.036;2023-02-21T17:19:46;22.20;56.90
35325;DHT22;35135;47.510;19.036;2023-02-21T17:22:12;22.20;55.80
35325;DHT22;35135;47.510;19.036;2023-02-21T17:24:38;22.30;56.80
35325;DHT22;35135;47.510;19.036;2023-02-21T17:27:04;22.30;56.00
35325;DHT22;35135;47.510;19.036;2023-02-21T17:29:30;22.30;56.60
35325;DHT22;35135;47.510;19.036;2023-02-21T17:31:56;22.30;56.10
35325;DHT22;35135;47.510;19.036;2023-02-21T17:34:23;22.30;55.80
35325;DHT22;35135;47.510;19.036;2023-02-21T17:36:50;22.30;55.30
35325;DHT22;35135;47.510;19.036;2023-02-21T17:39:17;22.30;55.10
35325;DHT22;35135;47.510;19.036;2023-02-21T17:41:50;22.30;55.00
35325;DHT22;35135;47.510;19.036;2023-02-21T17:44:16;22.30;54.80
35325;DHT22;35135;47.510;19.036;2023-02-21T17:46:52;22.30;54.90
35325;DHT22;35135;47.510;19.036;2023-02-21T17:49:21;22.30;54.80
35325;DHT22;35135;47.510;19.036;2023-02-21T17:51:47;22.30;55.50
35325;DHT22;35135;47.510;19.036;2023-02-21T17:54:18;22.30;55.60
35325;DHT22;35135;47.510;19.036;2023-02-21T17:56:44;22.30;55.90
35325;DHT22;35135;47.510;19.036;2023-02-21T17:59:10;22.30;55.30
35325;DHT22;35135;47.510;19.036;2023-02-21T18:01:36;22.30;55.60
35325;DHT22;35135;47.510;19.036;2023-02-21T18:04:02;22.30;56.10
35325;DHT22;35135;47.510;19.036;2023-02-21T18:06:29;22.30;56.10
35325;DHT22;35135;47.510;19.036;2023-02-21T18:08:55;22.30;55.40
35325;DHT22;35135;47.510;19.036;2023-02-21T18:11:22;22.30;55.10
35325;DHT22;35135;47.510;19.036;2023-02-21T18:13:49;22.30;54.90
35325;DHT22;35135;47.510;19.036;2023-02-21T18:16:15;22.30;54.90
35325;DHT22;35135;47.510;19.036;2023-02-21T18:18:41;22.30;55.10
35325;DHT22;35135;47.510;19.036;2023-02-21T18:21:07;22.30;55.70
35325;DHT22;35135;47.510;19.036;2023-02-21T18:23:33;22.30;55.90
35325;DHT22;35135;47.510;19.036;2023-02-21T18:26:00;22.30;55.60
35325;DHT22;35135;47.510;19.036;2023-02-21T18:28:27;22.30;56.60